Time;durP1;ratioP1;P1;durP2;ratioP2;P2;SDS_P1;SDS_P2;PMS_P1;PMS_P2;Temp;Humidity;BMP_temperature;BMP_pressure;BME280_temperature;BME280_humidity;BME280_pressure;Samples;Min_cycle;Max_cycle;Signal;HPM_P1;HPM_P2
2023/06/10 00:00:01;;;;;;;7.47;6.97;;;;;;;19.18;74.11;98208.84;4109478;28;21016;-50
2023/06/10 00:02:03;;;;;;;6.63;6.22;;;;;;;19.15;74.22;98215.00;4124850;28;20210;-50
2023/06/10 00:04:05;;;;;;;6.60;6.20;;;;;;;19.14;74.15;98210.59;4110529;28;20234;-51
2023/06/10 00:06:07;;;;;;;6.60;5.75;;;;;;;19.06;74.01;98217.69;4110139;28;20265;-48
2023/06/10 00:08:10;;;;;;;6.80;6.30;;;;;;;19.05;74.00;98220.78;4109915;28;20813;-50
2023/06/10 00:10:12;;;;;;;6.55;6.03;;;;;;;19.02;74.02;98213.09;4109252;28;20242;-49
2023/06/10 00:12:14;;;;;;;6.32;5.75;;;;;;;19.03;74.16;98203.63;4109017;28;20210;-50
2023/06/10 00:14:16;;;;;;;8.10;6.38;;;;;;;19.00;74.24;98207.88;4108019;28;20222;-49
2023/06/10 00:16:18;;;;;;;7.13;5.72;;;;;;;19.00;74.32;98212.59;4109368;28;20212;-51
2023/06/10 00:18:22;;;;;;;6.28;5.72;;;;;;;18.94;74.85;98209.13;4110077;28;20215;-49
2023/06/10 00:20:24;;;;;;;6.07;5.68;;;;;;;18.87;75.35;98211.50;4110010;28;20689;-48
2023/06/10 00:22:29;;;;;;;6.30;5.90;;;;;;;18.84;75.40;98214.06;4124935;28;20205;-50
2023/06/10 00:24:31;;;;;;;7.03;6.53;;;;;;;18.80;75.86;98208.31;4109490;28;20234;-50
2023/06/10 00:26:33;;;;;;;5.70;5.32;;;;;;;18.77;75.84;98216.44;4108664;28;20217;-50
2023/06/10 00:28:35;;;;;;;6.72;6.22;;;;;;;18.73;75.94;98207.88;4094245;28;20676;-49
2023/06/10 00:30:37;;;;;;;7.35;6.85;;;;;;;18.68;76.80;98212.72;4111610;28;20213;-51
2023/06/10 00:32:38;;;;;;;7.97;6.00;;;;;;;18.63;76.89;98218.38;4109481;28;20206;-51
2023/06/10 00:34:40;;;;;;;6.63;6.03;;;;;;;18.60;77.19;98207.91;4109629;28;20428;-49
2023/06/10 00:36:43;;;;;;;6.65;6.15;;;;;;;18.59;77.37;98211.81;4110006;28;20210;-50
2023/06/10 00:38:44;;;;;;;7.55;6.95;;;;;;;18.55;77.84;98210.78;4110005;28;20214;-48
2023/06/10 00:40:46;;;;;;;12.23;6.72;;;;;;;18.53;77.87;98213.06;4109117;28;20206;-49
2023/06/10 00:42:48;;;;;;;6.55;6.05;;;;;;;18.51;78.13;98209.78;4107076;28;20206;-49
2023/06/10 00:44:54;;;;;;;7.30;6.80;;;;;;;18.49;78.17;98206.47;4102889;28;20226;-49
2023/06/10 00:46:56;;;;;;;6.85;6.40;;;;;;;18.37;78.98;98209.78;4111871;28;20693;-49
2023/06/10 00:48:57;;;;;;;7.20;6.70;;;;;;;18.34;79.05;98209.56;4111853;28;20203;-49
2023/06/10 00:51:00;;;;;;;7.78;7.15;;;;;;;18.30;78.79;98211.25;4112623;28;20207;-51
2023/06/10 00:53:01;;;;;;;7.30;6.70;;;;;;;18.30;78.76;98214.03;4106407;28;20318;-51
2023/06/10 00:55:04;;;;;;;6.97;6.47;;;;;;;18.25;78.81;98211.38;4108467;28;20226;-49
2023/06/10 00:57:05;;;;;;;7.07;6.57;;;;;;;18.23;78.75;98214.44;4110094;28;20236;-52
2023/06/10 00:59:07;;;;;;;6.95;6.30;;;;;;;18.19;78.62;98212.59;4106290;28;20273;-51
2023/06/10 01:01:10;;;;;;;6.55;6.15;;;;;;;18.15;78.43;98208.78;4102535;28;20641;-51
2023/06/10 01:03:12;;;;;;;9.30;6.63;;;;;;;18.12;79.16;98213.00;4108191;28;20206;-51
2023/06/10 01:05:15;;;;;;;7.43;6.85;;;;;;;18.09;79.09;98212.78;4109712;28;20238;-52
2023/06/10 01:07:28;;;;;;;7.32;6.72;;;;;;;18.02;79.49;98213.19;4108894;28;20244;-49
2023/06/10 01:09:46;;;;;;;6.53;6.10;;;;;;;17.99;79.46;98218.53;4091958;28;20211;-49
2023/06/10 01:11:54;;;;;;;6.70;6.10;;;;;;;18.00;79.56;98214.63;4109137;28;20207;-49
2023/06/10 01:13:58;;;;;;;7.88;7.28;;;;;;;17.99;79.35;98213.78;4109933;28;20225;-49
2023/06/10 01:16:00;;;;;;;6.63;6.15;;;;;;;18.00;79.58;98221.00;4092952;28;20203;-49
2023/06/10 01:18:09;;;;;;;6.57;6.07;;;;;;;17.97;79.56;98215.22;4108062;28;20207;-50
2023/06/10 01:20:11;;;;;;;7.65;7.15;;;;;;;17.99;79.41;98213.00;4107366;28;20214;-53
2023/06/10 01:22:15;;;;;;;6.70;6.07;;;;;;;17.95;79.46;98218.31;4127942;28;20767;-50
2023/06/10 01:24:18;;;;;;;8.90;6.78;;;;;;;17.97;79.65;98216.06;4114940;28;20775;-50
2023/06/10 01:26:23;;;;;;;8.02;7.30;;;;;;;17.93;79.97;98222.50;4096410;28;20245;-49
2023/06/10 01:28:36;;;;;;;6.97;6.38;;;;;;;17.92;80.34;98218.91;4128811;28;20218;-51
2023/06/10 01:30:47;;;;;;;6.28;5.88;;;;;;;17.85;80.70;98224.03;4114774;28;20220;-49
2023/06/10 01:32:50;;;;;;;7.18;6.68;;;;;;;17.83;80.85;98225.44;4093326;28;20199;-49
2023/06/10 01:34:52;;;;;;;8.13;7.50;;;;;;;17.77;81.15;98221.97;4106281;28;20282;-49
2023/06/10 01:36:56;;;;;;;7.68;6.53;;;;;;;17.76;81.66;98225.00;4110813;28;20265;-49
2023/06/10 01:38:59;;;;;;;7.82;7.13;;;;;;;17.76;81.78;98219.47;4107445;28;20632;-49
2023/06/10 01:41:01;;;;;;;7.38;6.78;;;;;;;17.67;81.96;98227.69;4095724;28;20754;-48
2023/06/10 01:43:03;;;;;;;7.32;6.78;;;;;;;17.75;82.34;98228.91;4109291;28;20249;-48
2023/06/10 01:45:06;;;;;;;7.32;6.82;;;;;;;17.68;82.71;98229.31;4110127;28;20230;-50
2023/06/10 01:47:08;;;;;;;6.10;5.70;;;;;;;17.64;82.63;98233.00;4107782;28;20689;-51
2023/06/10 01:49:10;;;;;;;7.53;6.93;;;;;;;17.64;82.83;98233.81;4111141;28;20213;-50
2023/06/10 01:51:12;;;;;;;7.80;7.20;;;;;;;17.61;82.75;98234.41;4110448;28;20210;-51
2023/06/10 01:53:14;;;;;;;7.60;7.00;;;;;;;17.64;82.89;98233.81;4109764;28;20214;-53
2023/06/10 01:55:16;;;;;;;7.38;6.88;;;;;;;17.63;82.87;98231.31;4110610;28;20219;-49
2023/06/10 01:57:18;;;;;;;7.05;6.55;;;;;;;17.60;82.87;98226.41;4126268;28;20210;-50
2023/06/10 01:59:20;;;;;;;7.40;6.70;;;;;;;17.60;82.77;98231.94;4124466;28;20213;-51
2023/06/10 02:01:21;;;;;;;6.90;6.40;;;;;;;17.62;82.88;98229.69;4108802;28;20210;-51
2023/06/10 02:03:23;;;;;;;7.13;6.63;;;;;;;17.62;82.93;98235.22;4095409;28;20224;-49
2023/06/10 02:05:25;;;;;;;7.28;6.75;;;;;;;17.54;82.87;98235.91;4110535;28;20689;-49
2023/06/10 02:07:27;;;;;;;7.75;7.25;;;;;;;17.53;83.23;98237.03;4113415;28;20254;-49
2023/06/10 02:09:28;;;;;;;8.00;7.38;;;;;;;17.43;83.16;98238.03;4113311;28;20229;-50
2023/06/10 02:11:30;;;;;;;8.43;7.72;;;;;;;17.41;83.48;98233.91;4104908;28;20273;-49
2023/06/10 02:13:32;;;;;;;7.65;7.13;;;;;;;17.37;83.66;98238.38;4124954;28;20753;-49
2023/06/10 02:15:33;;;;;;;6.72;6.22;;;;;;;17.30;84.27;98232.38;4110344;28;20207;-50
2023/06/10 02:17:38;;;;;;;6.63;6.15;;;;;;;17.29;84.03;98241.81;4110166;28;20262;-52
2023/06/10 02:19:42;;;;;;;8.07;7.13;;;;;;;17.24;84.17;98244.66;4109302;28;20213;-51
2023/06/10 02:21:44;;;;;;;7.05;6.55;;;;;;;17.23;84.54;98237.47;4106213;28;20223;-49
2023/06/10 02:23:46;;;;;;;7.47;7.07;;;;;;;17.20;84.71;98247.19;4110518;28;20231;-49
2023/06/10 02:25:48;;;;;;;11.00;7.50;;;;;;;17.16;84.99;98248.94;4115887;28;20717;-51
2023/06/10 02:27:49;;;;;;;6.53;6.07;;;;;;;17.16;85.22;98237.88;4109505;28;20222;-51
2023/06/10 02:29:51;;;;;;;6.53;6.03;;;;;;;17.14;85.26;98244.81;4112262;28;20573;-49
2023/06/10 02:31:53;;;;;;;6.72;6.22;;;;;;;17.09;85.91;98251.25;4110327;28;20670;-49
2023/06/10 02:33:55;;;;;;;7.53;6.90;;;;;;;17.09;86.32;98254.00;4111733;28;20301;-49
2023/06/10 02:35:57;;;;;;;8.80;6.80;;;;;;;17.10;85.93;98257.56;4125335;28;20195;-49
2023/06/10 02:37:59;;;;;;;8.02;7.43;;;;;;;16.73;87.96;98257.53;4110514;28;20206;-49
2023/06/10 02:40:01;;;;;;;7.43;6.75;;;;;;;16.77;87.64;98261.34;4107545;28;20274;-49
2023/06/10 02:42:03;;;;;;;7.05;6.38;;;;;;;16.91;86.98;98256.75;4107815;28;20214;-49
2023/06/10 02:44:04;;;;;;;7.28;6.78;;;;;;;16.91;86.62;98256.75;4108271;28;21104;-48
2023/06/10 02:46:06;;;;;;;7.22;6.72;;;;;;;16.99;86.38;98253.31;4107605;28;20242;-48
2023/06/10 02:48:08;;;;;;;6.90;6.40;;;;;;;16.91;86.63;98256.75;4111001;28;20587;-49
2023/06/10 02:50:10;;;;;;;6.75;6.25;;;;;;;16.97;86.54;98250.03;4105665;28;20221;-48
2023/06/10 02:52:12;;;;;;;6.63;6.13;;;;;;;16.99;86.17;98253.31;4107087;28;20298;-48
2023/06/10 02:54:13;;;;;;;6.97;6.47;;;;;;;16.95;86.19;98257.78;4108831;28;20234;-49
2023/06/10 02:56:18;;;;;;;8.07;7.38;;;;;;;16.90;86.71;98260.63;4104896;28;20306;-49
2023/06/10 02:58:21;;;;;;;8.15;7.65;;;;;;;16.97;86.25;98254.75;4108337;28;20218;-49
2023/06/10 03:00:23;;;;;;;18.67;6.50;;;;;;;16.99;86.29;98253.31;4109936;28;20211;-49
2023/06/10 03:02:28;;;;;;;7.90;7.30;;;;;;;17.06;85.94;98259.31;4105053;28;22053;-48
2023/06/10 03:04:30;;;;;;;7.00;6.43;;;;;;;16.78;86.81;98257.50;4122680;28;20246;-48
2023/06/10 03:06:35;;;;;;;7.25;6.57;;;;;;;16.91;86.60;98259.53;4106016;28;20242;-48
2023/06/10 03:08:37;;;;;;;7.22;6.60;;;;;;;16.91;86.24;98256.75;4109257;28;20258;-50
2023/06/10 03:10:39;;;;;;;7.10;6.60;;;;;;;16.86;86.88;98251.28;4103234;28;20688;-48
2023/06/10 03:12:41;;;;;;;8.73;7.50;;;;;;;16.88;86.35;98260.09;4102414;28;20257;-49
2023/06/10 03:14:42;;;;;;;6.90;6.40;;;;;;;16.88;86.68;98262.88;4101519;28;20330;-49
2023/06/10 03:16:45;;;;;;;6.28;5.88;;;;;;;16.91;86.37;98256.75;4104569;28;20211;-48
2023/06/10 03:18:47;;;;;;;6.75;6.15;;;;;;;16.94;86.35;98261.69;4103531;28;20345;-48
2023/06/10 03:20:49;;;;;;;7.15;6.65;;;;;;;16.88;86.40;98257.34;4105837;28;20218;-48
2023/06/10 03:22:51;;;;;;;6.60;6.15;;;;;;;16.91;86.27;98256.75;4108190;28;20215;-48
2023/06/10 03:24:53;;;;;;;6.47;6.07;;;;;;;16.90;86.40;98266.16;4108024;28;20230;-48
2023/06/10 03:26:55;;;;;;;6.80;6.40;;;;;;;16.87;86.55;98269.53;4108505;28;20226;-51
2023/06/10 03:28:56;;;;;;;6.68;6.18;;;;;;;16.86;86.40;98265.13;4107811;28;20293;-49
2023/06/10 03:30:58;;;;;;;7.15;6.65;;;;;;;16.80;86.78;98271.81;4108423;28;20214;-49
2023/06/10 03:33:00;;;;;;;6.65;6.25;;;;;;;16.78;86.71;98267.72;4108726;28;20211;-49
2023/06/10 03:35:02;;;;;;;7.20;6.70;;;;;;;16.75;86.75;98277.41;4106130;28;20277;-49
2023/06/10 03:37:04;;;;;;;6.18;5.78;;;;;;;16.77;86.70;98280.69;4093410;28;20199;-49
2023/06/10 03:39:06;;;;;;;6.07;5.68;;;;;;;16.76;86.86;98270.75;4107900;28;20217;-48
2023/06/10 03:41:08;;;;;;;7.05;6.47;;;;;;;16.75;86.95;98269.13;4123200;28;20213;-48
2023/06/10 03:43:10;;;;;;;7.10;6.53;;;;;;;16.72;87.19;98275.25;4109468;28;20222;-49
2023/06/10 03:45:12;;;;;;;7.47;6.45;;;;;;;16.70;87.37;98277.47;4110265;28;20258;-48
2023/06/10 03:47:14;;;;;;;6.45;6.03;;;;;;;16.67;87.48;98275.31;4108165;28;20685;-49
2023/06/10 03:49:16;;;;;;;6.95;6.35;;;;;;;16.60;87.53;98277.59;4110321;28;20215;-48
2023/06/10 03:51:18;;;;;;;6.90;6.43;;;;;;;16.63;87.97;98273.44;4110011;28;20207;-49
2023/06/10 03:53:20;;;;;;;6.90;6.40;;;;;;;16.60;88.06;98276.75;4110115;28;20755;-49
2023/06/10 03:55:23;;;;;;;6.80;6.20;;;;;;;16.61;87.95;98273.72;4109912;28;20203;-48
2023/06/10 03:57:25;;;;;;;7.10;6.45;;;;;;;16.62;88.30;98275.34;4108239;28;20206;-48
2023/06/10 03:59:28;;;;;;;6.30;5.80;;;;;;;16.62;88.31;98272.59;4123185;28;20280;-47
2023/06/10 04:01:31;;;;;;;6.72;6.13;;;;;;;16.61;88.36;98278.41;4108559;28;20215;-48
2023/06/10 04:03:33;;;;;;;7.13;6.45;;;;;;;16.62;88.36;98269.03;4107306;28;21799;-49
2023/06/10 04:05:35;;;;;;;6.75;6.35;;;;;;;16.64;88.66;98273.13;4110174;28;20267;-48
2023/06/10 04:07:37;;;;;;;7.13;6.53;;;;;;;16.62;88.86;98275.34;4109402;28;20245;-47
2023/06/10 04:09:38;;;;;;;6.80;6.30;;;;;;;16.64;89.05;98273.13;4108164;28;20211;-48
2023/06/10 04:11:40;;;;;;;7.47;6.63;;;;;;;16.61;89.12;98278.41;4124560;28;20214;-49
2023/06/10 04:13:42;;;;;;;6.97;6.47;;;;;;;16.69;89.10;98273.06;4092169;28;20721;-49
2023/06/10 04:15:44;;;;;;;6.95;6.35;;;;;;;16.65;89.16;98280.31;4111614;28;20222;-49
2023/06/10 04:17:45;;;;;;;6.90;6.40;;;;;;;16.63;89.58;98279.75;4108708;28;20215;-47
2023/06/10 04:19:48;;;;;;;7.10;6.60;;;;;;;16.69;89.00;98275.81;4105404;28;20243;-49
2023/06/10 04:21:49;;;;;;;7.43;6.97;;;;;;;16.65;89.46;98279.47;4109557;28;20739;-49
2023/06/10 04:23:51;;;;;;;8.32;7.57;;;;;;;16.77;89.19;98277.94;4110373;28;20485;-49
2023/06/10 04:25:53;;;;;;;7.90;7.25;;;;;;;16.83;88.76;98289.75;4109761;28;20720;-48
2023/06/10 04:27:55;;;;;;;9.32;7.18;;;;;;;16.76;89.03;98287.34;4094591;28;20310;-49
2023/06/10 04:29:56;;;;;;;7.00;6.32;;;;;;;16.79;88.76;98291.47;4108036;28;20242;-49
2023/06/10 04:31:58;;;;;;;6.85;6.35;;;;;;;16.83;88.44;98290.56;4109085;28;20273;-48
2023/06/10 04:34:00;;;;;;;6.88;6.38;;;;;;;16.79;88.22;98292.28;4107836;28;20233;-49
2023/06/10 04:36:02;;;;;;;6.03;5.63;;;;;;;16.78;88.53;98296.19;4107865;28;20577;-48
2023/06/10 04:38:04;;;;;;;8.18;7.50;;;;;;;16.80;88.42;98299.47;4110108;28;20616;-48
2023/06/10 04:40:07;;;;;;;8.05;7.47;;;;;;;16.82;88.75;98297.22;4107325;28;20219;-48
2023/06/10 04:42:09;;;;;;;6.55;6.00;;;;;;;16.85;88.72;98295.81;4108186;28;20206;-49
2023/06/10 04:44:10;;;;;;;5.90;5.55;;;;;;;16.87;88.71;98302.69;4109192;28;20294;-49
2023/06/10 04:46:13;;;;;;;6.40;5.90;;;;;;;16.93;88.78;98298.75;4102311;28;20721;-48
2023/06/10 04:48:15;;;;;;;7.00;6.40;;;;;;;16.98;88.80;98303.38;4123305;28;20241;-49
2023/06/10 04:50:17;;;;;;;8.02;7.10;;;;;;;16.97;88.67;98310.03;4110274;28;20692;-48
2023/06/10 04:52:18;;;;;;;10.07;7.00;;;;;;;17.09;88.70;98298.25;4107648;28;20206;-49
2023/06/10 04:54:20;;;;;;;6.65;6.15;;;;;;;17.02;88.59;98313.53;4107147;28;20243;-49
2023/06/10 04:56:22;;;;;;;7.30;6.70;;;;;;;16.98;88.37;98305.03;4106593;28;20211;-49
2023/06/10 04:58:24;;;;;;;6.85;5.97;;;;;;;17.02;88.06;98310.78;4124480;28;20214;-50
2023/06/10 05:00:26;;;;;;;6.57;5.80;;;;;;;17.09;87.73;98311.25;4124799;28;20217;-48
2023/06/10 05:02:27;;;;;;;7.18;6.57;;;;;;;17.12;87.43;98307.91;4105806;28;20210;-49
2023/06/10 05:04:29;;;;;;;6.78;6.00;;;;;;;17.17;87.30;98310.56;4109540;28;20278;-49
2023/06/10 05:06:31;;;;;;;7.07;6.57;;;;;;;17.23;87.44;98312.16;4123855;28;20260;-50
2023/06/10 05:08:33;;;;;;;6.93;6.47;;;;;;;17.27;87.19;98311.28;4107342;28;20199;-48
2023/06/10 05:10:35;;;;;;;6.45;6.03;;;;;;;17.32;86.97;98313.16;4109184;28;20267;-48
2023/06/10 05:12:38;;;;;;;7.45;6.57;;;;;;;17.40;87.01;98315.28;4110502;28;20211;-48
2023/06/10 05:14:39;;;;;;;7.13;6.60;;;;;;;17.42;87.17;98308.31;4101618;28;20254;-49
2023/06/10 05:16:41;;;;;;;6.65;6.15;;;;;;;17.47;87.08;98312.94;4111713;28;20261;-49
2023/06/10 05:18:43;;;;;;;6.93;6.40;;;;;;;17.55;86.49;98306.75;4110330;28;20207;-49
2023/06/10 05:20:45;;;;;;;7.28;6.78;;;;;;;17.51;87.27;98316.78;4108128;28;20219;-48
2023/06/10 05:22:46;;;;;;;6.72;6.22;;;;;;;17.64;86.20;98313.25;4093937;28;20215;-49
2023/06/10 05:24:48;;;;;;;7.53;7.03;;;;;;;17.59;86.67;98313.31;4109677;28;20325;-49
2023/06/10 05:26:50;;;;;;;7.30;6.65;;;;;;;17.65;87.22;98312.13;4108323;28;20350;-49
2023/06/10 05:28:52;;;;;;;7.28;6.63;;;;;;;17.67;87.44;98312.66;4109802;28;20281;-50
2023/06/10 05:30:54;;;;;;;7.35;6.68;;;;;;;17.89;85.84;98307.28;4108346;28;20214;-49
2023/06/10 05:32:56;;;;;;;7.43;6.72;;;;;;;18.04;85.38;98309.84;4112648;28;20211;-48
2023/06/10 05:34:59;;;;;;;6.30;5.70;;;;;;;18.25;85.14;98305.56;4107498;28;20237;-50
2023/06/10 05:37:01;;;;;;;6.65;6.13;;;;;;;18.26;85.95;98310.78;4111217;28;20202;-48
2023/06/10 05:39:03;;;;;;;7.10;6.57;;;;;;;18.43;86.02;98313.00;4108859;28;20293;-49
2023/06/10 05:41:05;;;;;;;6.47;5.88;;;;;;;18.70;85.30;98315.81;4108294;28;20203;-49
2023/06/10 05:43:06;;;;;;;6.50;5.93;;;;;;;18.85;85.37;98309.97;4108571;28;20250;-49
2023/06/10 05:45:09;;;;;;;7.75;6.38;;;;;;;19.12;83.04;98318.28;4106874;28;20263;-49
2023/06/10 05:47:11;;;;;;;10.05;6.45;;;;;;;19.37;80.72;98321.34;4103045;28;20286;-48
2023/06/10 05:49:13;;;;;;;6.45;5.95;;;;;;;19.60;80.21;98322.22;4108536;28;20202;-49
2023/06/10 05:51:14;;;;;;;7.13;6.63;;;;;;;19.77;79.41;98320.41;4109821;28;20211;-48
2023/06/10 05:53:16;;;;;;;5.43;5.03;;;;;;;19.99;78.28;98317.66;4092842;28;20261;-48
2023/06/10 05:55:18;;;;;;;6.13;5.40;;;;;;;20.03;78.39;98320.63;4108146;28;20712;-49
2023/06/10 05:57:20;;;;;;;7.28;6.68;;;;;;;20.26;77.35;98325.06;4108605;28;20635;-50
2023/06/10 05:59:22;;;;;;;6.97;6.13;;;;;;;20.40;76.79;98328.59;4111135;28;20214;-49
2023/06/10 06:01:24;;;;;;;6.63;6.13;;;;;;;20.58;76.05;98327.56;4104699;28;20457;-49
2023/06/10 06:03:27;;;;;;;6.28;5.88;;;;;;;20.75;74.62;98328.47;4106479;28;20214;-49
2023/06/10 06:05:34;;;;;;;8.95;5.32;;;;;;;20.88;74.00;98333.13;4108655;28;20245;-49
2023/06/10 06:07:36;;;;;;;6.50;5.97;;;;;;;21.01;73.05;98326.66;4104724;28;20253;-48
2023/06/10 06:09:38;;;;;;;6.75;6.15;;;;;;;21.08;73.15;98326.16;4101583;28;20210;-49
2023/06/10 06:11:41;;;;;;;6.88;5.60;;;;;;;21.22;72.54;98332.44;4104474;28;20603;-48
2023/06/10 06:13:43;;;;;;;5.10;4.78;;;;;;;21.23;72.60;98323.75;4112800;28;20234;-51
2023/06/10 06:15:44;;;;;;;6.05;5.65;;;;;;;21.27;72.89;98329.50;4113960;28;20210;-50
2023/06/10 06:17:52;;;;;;;7.78;5.82;;;;;;;21.49;72.06;98326.59;4096132;28;20266;-49
2023/06/10 06:19:54;;;;;;;9.55;5.28;;;;;;;21.56;71.92;98326.94;4088179;28;20695;-48
2023/06/10 06:21:55;;;;;;;5.40;4.97;;;;;;;21.60;72.86;98334.34;4110907;28;20610;-48
2023/06/10 06:23:57;;;;;;;5.47;5.07;;;;;;;21.81;71.34;98329.78;4104973;28;20231;-49
2023/06/10 06:25:59;;;;;;;8.93;5.55;;;;;;;21.95;70.69;98326.81;4109004;28;20752;-48
2023/06/10 06:28:02;;;;;;;6.53;4.68;;;;;;;22.08;69.80;98331.41;4105077;28;20751;-48
2023/06/10 06:30:04;;;;;;;5.75;5.22;;;;;;;22.17;70.02;98327.47;4110478;28;20207;-48
2023/06/10 06:32:06;;;;;;;5.07;4.78;;;;;;;22.36;68.86;98329.91;4095946;28;20310;-49
2023/06/10 06:34:08;;;;;;;5.95;5.53;;;;;;;22.40;68.31;98322.53;4109269;28;20230;-49
2023/06/10 06:36:10;;;;;;;5.97;5.47;;;;;;;22.46;67.78;98326.81;4122715;28;20211;-48
2023/06/10 06:38:12;;;;;;;5.65;5.18;;;;;;;22.59;67.53;98332.22;4104481;28;20245;-48
2023/06/10 06:40:14;;;;;;;7.45;6.85;;;;;;;22.72;66.72;98327.56;4105403;28;20211;-48
2023/06/10 06:42:21;;;;;;;6.47;6.03;;;;;;;22.64;65.77;98331.22;4108059;28;20206;-49
2023/06/10 06:44:23;;;;;;;5.53;5.07;;;;;;;22.85;65.69;98337.69;4111418;28;20578;-50
2023/06/10 06:46:25;;;;;;;6.15;5.65;;;;;;;22.63;65.28;98343.53;4124956;28;20209;-49
2023/06/10 06:48:26;;;;;;;15.77;5.10;;;;;;;22.64;65.44;98331.22;4094401;28;20278;-49
2023/06/10 06:50:28;;;;;;;5.82;5.28;;;;;;;22.70;64.62;98335.47;4109009;28;20246;-48
2023/06/10 06:52:30;;;;;;;5.97;5.57;;;;;;;22.52;64.08;98339.44;4110345;28;20243;-49
2023/06/10 06:54:32;;;;;;;6.15;5.75;;;;;;;22.60;63.81;98333.00;4109798;28;20234;-49
2023/06/10 06:56:33;;;;;;;4.88;4.55;;;;;;;23.21;63.50;98330.50;4111359;28;20206;-47
2023/06/10 06:58:35;;;;;;;6.50;6.00;;;;;;;23.18;60.74;98335.94;4108936;28;20262;-48
2023/06/10 07:00:37;;;;;;;6.93;5.20;;;;;;;23.43;61.54;98338.59;4109315;28;20766;-49
2023/06/10 07:02:39;;;;;;;5.50;5.00;;;;;;;23.52;60.31;98347.75;4125131;28;20210;-50
2023/06/10 07:04:41;;;;;;;6.32;4.97;;;;;;;23.51;60.03;98337.72;4108971;28;20233;-48
2023/06/10 07:06:43;;;;;;;4.90;4.50;;;;;;;23.28;61.40;98336.38;4110814;28;20258;-49
2023/06/10 07:08:44;;;;;;;4.93;4.53;;;;;;;23.56;61.91;98336.72;4113651;28;20210;-50
2023/06/10 07:10:46;;;;;;;5.75;5.25;;;;;;;23.83;61.12;98341.78;4111226;28;20206;-49
2023/06/10 07:12:48;;;;;;;5.72;5.10;;;;;;;23.75;59.32;98335.09;4110929;28;20206;-48
2023/06/10 07:14:51;;;;;;;4.80;4.40;;;;;;;23.94;60.77;98336.28;4108726;28;20631;-49
2023/06/10 07:16:52;;;;;;;5.00;4.57;;;;;;;24.11;58.02;98344.53;4105580;28;20261;-48
2023/06/10 07:18:54;;;;;;;5.15;4.75;;;;;;;23.76;58.81;98344.31;4104987;28;20940;-48
2023/06/10 07:20:56;;;;;;;8.48;4.72;;;;;;;24.06;58.84;98346.75;4111561;28;20284;-49
2023/06/10 07:22:57;;;;;;;4.22;3.92;;;;;;;23.93;55.74;98342.25;4110112;28;20576;-52
2023/06/10 07:24:59;;;;;;;4.15;3.85;;;;;;;23.85;55.43;98345.84;4111648;28;20237;-52
2023/06/10 07:27:01;;;;;;;4.28;3.90;;;;;;;24.13;55.78;98347.81;4110295;28;20663;-49
2023/06/10 07:29:03;;;;;;;5.03;3.38;;;;;;;24.29;56.98;98346.03;4093757;28;20262;-49
2023/06/10 07:31:05;;;;;;;9.75;4.03;;;;;;;24.51;56.48;98348.44;4109761;28;20217;-49
2023/06/10 07:33:07;;;;;;;4.10;3.80;;;;;;;24.43;54.97;98345.72;4110960;28;20213;-49
2023/06/10 07:35:12;;;;;;;4.32;3.97;;;;;;;24.72;55.34;98342.84;4113309;28;20214;-47
2023/06/10 07:37:14;;;;;;;3.88;3.67;;;;;;;24.76;53.75;98343.75;4110787;28;20202;-49
2023/06/10 07:39:15;;;;;;;4.13;3.55;;;;;;;24.68;53.97;98337.13;4106755;28;20211;-49
2023/06/10 07:41:17;;;;;;;4.60;3.58;;;;;;;24.96;53.65;98335.31;4104625;28;20207;-48
2023/06/10 07:43:19;;;;;;;5.32;4.22;;;;;;;24.79;53.45;98343.88;4103762;28;20234;-48
2023/06/10 07:45:21;;;;;;;5.90;3.67;;;;;;;24.98;53.11;98341.38;4110622;28;20210;-48
2023/06/10 07:47:23;;;;;;;4.85;4.35;;;;;;;25.08;53.70;98340.94;4108643;28;20226;-48
2023/06/10 07:49:24;;;;;;;4.07;3.30;;;;;;;25.26;52.69;98345.16;4109489;28;20649;-50
2023/06/10 07:51:26;;;;;;;3.17;2.97;;;;;;;25.08;52.07;98338.13;4109118;28;20264;-48
2023/06/10 07:53:28;;;;;;;3.65;3.40;;;;;;;25.25;53.49;98337.91;4109175;28;20226;-49
2023/06/10 07:55:29;;;;;;;4.10;3.28;;;;;;;25.49;51.51;98337.09;4108093;28;20815;-48
2023/06/10 07:57:34;;;;;;;4.90;3.10;;;;;;;25.45;51.42;98333.38;4107262;28;20289;-48
2023/06/10 07:59:38;;;;;;;3.10;2.90;;;;;;;25.34;51.43;98337.81;4109456;28;20206;-48
2023/06/10 08:01:40;;;;;;;3.63;3.33;;;;;;;25.62;51.08;98339.56;4110772;28;20217;-49
2023/06/10 08:03:42;;;;;;;5.97;3.45;;;;;;;25.73;50.67;98345.50;4109462;28;20589;-48
2023/06/10 08:05:44;;;;;;;3.38;3.17;;;;;;;25.31;50.46;98333.72;4110285;28;20210;-48
2023/06/10 08:07:46;;;;;;;3.45;3.13;;;;;;;25.81;51.50;98331.34;4103728;28;20221;-48
2023/06/10 08:09:48;;;;;;;3.60;3.40;;;;;;;25.50;51.02;98331.16;4108285;28;20213;-49
2023/06/10 08:11:50;;;;;;;5.07;3.70;;;;;;;25.61;50.68;98337.91;4110010;28;20607;-49
2023/06/10 08:13:51;;;;;;;4.10;3.80;;;;;;;25.85;51.35;98337.88;4093923;28;20230;-50
2023/06/10 08:15:55;;;;;;;3.63;3.10;;;;;;;26.44;50.75;98333.25;4105787;28;20637;-49
2023/06/10 08:17:56;;;;;;;4.10;3.80;;;;;;;25.88;50.51;98342.78;4110989;28;20874;-49
2023/06/10 08:19:58;;;;;;;4.20;3.80;;;;;;;26.16;50.62;98338.06;4108584;28;20210;-48
2023/06/10 08:22:00;;;;;;;3.45;3.25;;;;;;;26.28;50.43;98340.00;4108071;28;20218;-50
2023/06/10 08:24:02;;;;;;;3.90;3.60;;;;;;;26.26;49.22;98337.53;4123327;28;20316;-51
2023/06/10 08:26:04;;;;;;;3.45;3.15;;;;;;;26.34;48.31;98328.19;4111855;28;20209;-51
2023/06/10 08:28:05;;;;;;;3.90;3.53;;;;;;;26.65;47.85;98333.09;4109659;28;20300;-51
2023/06/10 08:30:09;;;;;;;3.47;3.17;;;;;;;26.23;48.80;98332.66;4110164;28;20318;-51
2023/06/10 08:32:11;;;;;;;27.27;4.03;;;;;;;26.82;49.46;98339.19;4108336;28;20217;-50
2023/06/10 08:34:13;;;;;;;3.28;3.03;;;;;;;26.93;47.57;98334.66;4104111;28;20230;-49
2023/06/10 08:36:15;;;;;;;3.88;3.58;;;;;;;26.74;47.71;98330.94;4108879;28;20210;-50
2023/06/10 08:38:19;;;;;;;3.50;3.20;;;;;;;26.73;47.99;98335.72;4109111;28;20273;-51
2023/06/10 08:40:21;;;;;;;3.65;3.33;;;;;;;27.13;48.12;98330.78;4105692;28;20210;-50
2023/06/10 08:42:28;;;;;;;4.45;3.00;;;;;;;27.68;48.67;98327.78;4093468;28;20296;-50
2023/06/10 08:44:30;;;;;;;4.82;3.03;;;;;;;27.86;46.80;98334.63;4100425;28;20766;-50
2023/06/10 08:46:33;;;;;;;7.70;3.35;;;;;;;27.95;47.10;98335.28;4106112;28;20268;-48
2023/06/10 08:48:42;;;;;;;3.55;3.33;;;;;;;27.58;46.94;98328.31;4105555;28;20226;-49
2023/06/10 08:50:44;;;;;;;3.05;2.75;;;;;;;27.56;46.55;98332.69;4103532;28;20726;-49
2023/06/10 08:52:48;;;;;;;4.82;2.80;;;;;;;27.45;47.01;98338.03;4107056;28;20202;-50
2023/06/10 08:54:59;;;;;;;3.30;3.00;;;;;;;27.51;46.32;98328.16;4121446;28;20345;-50
2023/06/10 08:57:01;;;;;;;4.85;3.08;;;;;;;27.38;45.86;98329.44;4104083;28;20215;-51
2023/06/10 08:59:03;;;;;;;3.35;3.15;;;;;;;27.82;46.65;98336.56;4107683;28;20285;-48
2023/06/10 09:01:05;;;;;;;3.83;3.53;;;;;;;27.35;46.00;98327.38;4092445;29;20333;-48
2023/06/10 09:03:08;;;;;;;3.00;2.65;;;;;;;27.55;45.62;98329.06;4110316;28;20214;-50
2023/06/10 09:05:11;;;;;;;4.15;3.53;;;;;;;27.56;45.32;98319.44;4107689;28;20293;-49
2023/06/10 09:07:14;;;;;;;3.60;2.67;;;;;;;27.78;46.03;98323.63;4106659;28;20210;-50
2023/06/10 09:09:16;;;;;;;3.30;3.00;;;;;;;27.59;45.28;98318.69;4104788;28;20202;-47
2023/06/10 09:11:17;;;;;;;3.58;3.28;;;;;;;27.31;46.30;98314.41;4103481;28;20718;-48
2023/06/10 09:13:19;;;;;;;3.78;3.42;;;;;;;27.38;45.29;98318.19;4103666;28;20214;-47
2023/06/10 09:15:21;;;;;;;4.53;4.22;;;;;;;27.65;45.05;98311.63;4098608;28;20214;-48
2023/06/10 09:17:23;;;;;;;4.22;3.83;;;;;;;28.15;45.86;98314.41;4100470;28;20249;-48
2023/06/10 09:19:27;;;;;;;4.78;3.72;;;;;;;28.31;44.82;98305.91;4121013;28;20288;-50
2023/06/10 09:21:29;;;;;;;4.15;3.85;;;;;;;27.97;44.87;98310.38;4106510;28;20680;-51
2023/06/10 09:23:31;;;;;;;5.60;5.10;;;;;;;28.62;45.00;98317.81;4106946;28;20750;-49
2023/06/10 09:25:38;;;;;;;5.80;3.53;;;;;;;29.11;44.46;98315.94;4108255;28;20209;-49
2023/06/10 09:27:53;;;;;;;4.53;4.13;;;;;;;28.78;43.36;98315.72;4124393;28;20213;-49
2023/06/10 09:29:55;;;;;;;3.95;3.55;;;;;;;29.01;42.90;98308.13;4108540;28;20594;-49
2023/06/10 09:31:58;;;;;;;4.70;4.22;;;;;;;29.23;42.62;98315.78;4106913;28;20209;-48
2023/06/10 09:34:06;;;;;;;3.10;2.90;;;;;;;29.05;42.74;98306.19;4107657;28;20610;-49
2023/06/10 09:36:09;;;;;;;4.07;3.65;;;;;;;28.36;43.61;98308.41;4123153;28;20287;-48